createdAt,value
2022-12-17T00:03:59.688Z,-0.22
2022-12-17T00:08:59.518Z,-0.27
2022-12-17T00:13:59.449Z,-0.31
2022-12-17T00:18:59.388Z,-0.38
2022-12-17T00:23:59.328Z,-0.40
2022-12-17T00:28:59.278Z,-0.45
2022-12-17T00:33:59.217Z,-0.47
2022-12-17T00:38:59.166Z,-0.52
2022-12-17T00:43:59.086Z,-0.50
2022-12-17T00:48:59.041Z,-0.60
2022-12-17T00:53:58.977Z,-0.57
2022-12-17T00:58:58.917Z,-0.63
2022-12-17T01:03:58.856Z,-0.67
2022-12-17T01:08:58.799Z,-0.61
2022-12-17T01:13:58.797Z,-0.66
2022-12-17T01:18:58.705Z,-0.81
2022-12-17T01:23:58.621Z,-0.84
2022-12-17T01:28:58.567Z,-0.79
2022-12-17T01:33:58.495Z,-0.89
2022-12-17T01:38:58.455Z,-0.95
2022-12-17T01:43:58.387Z,-1.04
2022-12-17T01:48:58.314Z,-0.98
2022-12-17T01:53:58.256Z,-1.08
2022-12-17T01:58:58.202Z,-1.08
2022-12-17T02:03:58.134Z,-1.13
2022-12-17T02:08:58.082Z,-1.10
2022-12-17T02:13:58.013Z,-1.08
2022-12-17T02:18:57.978Z,-1.07
2022-12-17T02:23:57.894Z,-1.13
2022-12-17T02:28:57.843Z,-1.05
2022-12-17T02:33:57.792Z,-1.08
2022-12-17T02:38:57.731Z,-1.13
2022-12-17T02:43:57.652Z,-1.22
2022-12-17T02:48:57.614Z,-1.18
2022-12-17T02:53:57.533Z,-1.18
2022-12-17T02:58:57.472Z,-1.19
2022-12-17T03:03:57.412Z,-1.18
2022-12-17T03:08:57.360Z,-1.25
2022-12-17T03:13:57.291Z,-1.29
2022-12-17T03:18:57.240Z,-1.19
2022-12-17T03:23:57.172Z,-1.22
2022-12-17T03:28:57.120Z,-1.16
2022-12-17T03:33:57.050Z,-1.16
2022-12-17T03:38:56.999Z,-1.19
2022-12-17T03:43:56.930Z,-1.23
2022-12-17T03:48:56.869Z,-1.22
2022-12-17T03:53:56.814Z,-1.22
2022-12-17T03:58:56.750Z,-1.21
2022-12-17T04:03:56.693Z,-1.25
2022-12-17T04:08:56.651Z,-1.21
2022-12-17T04:13:56.558Z,-1.23
2022-12-17T04:18:56.520Z,-1.23
2022-12-17T04:23:56.468Z,-1.22
2022-12-17T04:28:56.404Z,-1.28
2022-12-17T04:33:56.328Z,-1.28
2022-12-17T04:38:56.278Z,-1.25
2022-12-17T04:44:01.249Z,-1.26
2022-12-17T04:48:57.158Z,-1.23
2022-12-17T04:53:56.087Z,-1.25
2022-12-17T04:58:56.045Z,-1.23
2022-12-17T05:03:56.052Z,-1.28
2022-12-17T05:08:55.907Z,-1.23
2022-12-17T05:13:55.857Z,-1.36
2022-12-17T05:18:55.786Z,-1.31
2022-12-17T05:23:55.725Z,-1.36
2022-12-17T05:28:55.674Z,-1.43
2022-12-17T05:33:55.604Z,-1.34
2022-12-17T05:38:55.553Z,-1.36
2022-12-17T05:43:55.484Z,-1.39
2022-12-17T05:48:55.459Z,-1.36
2022-12-17T05:53:55.365Z,-1.41
2022-12-17T05:58:55.324Z,-1.43
2022-12-17T06:03:55.310Z,-1.47
2022-12-17T06:08:55.184Z,-1.51
2022-12-17T06:13:55.148Z,-1.46
2022-12-17T06:18:55.072Z,-1.44
2022-12-17T06:23:55.003Z,-1.46
2022-12-17T06:28:54.950Z,-1.59
2022-12-17T06:33:54.881Z,-1.58
2022-12-17T06:38:54.832Z,-1.58
2022-12-17T06:43:54.763Z,-1.58
2022-12-17T06:48:54.711Z,-1.54
2022-12-17T06:53:54.641Z,-1.54
2022-12-17T06:58:54.602Z,-1.49
2022-12-17T07:03:54.522Z,-1.54
2022-12-17T07:08:54.478Z,-1.44
2022-12-17T07:13:54.421Z,-1.49
2022-12-17T07:18:54.353Z,-1.43
2022-12-17T07:23:54.279Z,-1.44
2022-12-17T07:28:54.230Z,-1.43
2022-12-17T07:33:54.179Z,-1.47
2022-12-17T07:38:54.130Z,-1.44
2022-12-17T07:43:54.039Z,-1.51
2022-12-17T07:48:53.989Z,-1.46
2022-12-17T07:53:53.926Z,-1.41
2022-12-17T07:58:53.868Z,-1.46
2022-12-17T08:03:53.820Z,-1.39
2022-12-17T08:08:53.758Z,-1.34
2022-12-17T08:13:53.687Z,-1.29
2022-12-17T08:18:53.638Z,-1.31
2022-12-17T08:23:53.589Z,-1.28
2022-12-17T08:28:53.523Z,-1.18
2022-12-17T08:33:53.459Z,-1.11
2022-12-17T08:38:53.387Z,-1.04
2022-12-17T08:43:53.327Z,-0.98
2022-12-17T08:48:53.269Z,-0.89
2022-12-17T08:53:53.206Z,-0.75
2022-12-17T08:58:58.704Z,-0.53
2022-12-17T09:03:54.077Z,-0.27
2022-12-17T09:08:53.061Z,-0.07
2022-12-17T09:13:52.966Z,0.26
2022-12-17T09:18:52.915Z,0.37
2022-12-17T09:23:52.865Z,0.48
2022-12-17T09:28:52.785Z,0.55
2022-12-17T09:33:52.724Z,0.73
2022-12-17T09:38:52.674Z,0.96
2022-12-17T09:43:52.604Z,1.00
2022-12-17T09:48:52.545Z,1.08
2022-12-17T09:53:52.493Z,0.87
2022-12-17T09:58:52.414Z,0.56
2022-12-17T10:03:52.441Z,0.40
2022-12-17T10:08:52.309Z,0.11
2022-12-17T10:13:52.243Z,0.12
2022-12-17T10:18:52.191Z,0.11
2022-12-17T10:23:52.124Z,0.11
2022-12-17T10:28:52.094Z,0.11
2022-12-17T10:33:52.002Z,0.09
2022-12-17T10:38:51.947Z,0.27
2022-12-17T10:43:51.883Z,0.44
2022-12-17T10:48:51.862Z,0.51
2022-12-17T10:53:51.787Z,0.48
2022-12-17T10:58:51.712Z,0.45
2022-12-17T11:03:51.670Z,0.63
2022-12-17T11:08:51.614Z,0.67
2022-12-17T11:13:51.531Z,0.66
2022-12-17T11:18:51.479Z,0.48
2022-12-17T11:23:51.401Z,0.40
2022-12-17T11:28:51.357Z,0.32
2022-12-17T11:33:51.292Z,0.32
2022-12-17T11:38:51.241Z,0.27
2022-12-17T11:43:51.180Z,0.35
2022-12-17T11:48:51.130Z,0.47
2022-12-17T11:53:51.058Z,0.64
2022-12-17T11:58:51.000Z,0.80
2022-12-17T12:03:51.019Z,0.90
2022-12-17T12:08:50.878Z,0.96
2022-12-17T12:13:50.812Z,1.06
2022-12-17T12:18:50.760Z,1.06
2022-12-17T12:23:50.689Z,1.13
2022-12-17T12:28:50.639Z,1.24
2022-12-17T12:33:50.574Z,1.34
2022-12-17T12:38:50.509Z,1.39
2022-12-17T12:43:50.452Z,1.49
2022-12-17T12:48:50.387Z,1.57
2022-12-17T12:53:50.331Z,1.56
2022-12-17T12:58:50.268Z,1.64
2022-12-17T13:03:50.245Z,1.67
2022-12-17T13:08:50.148Z,1.74
2022-12-17T13:13:50.086Z,1.82
2022-12-17T13:18:50.027Z,1.95
2022-12-17T13:23:49.967Z,1.91
2022-12-17T13:28:49.985Z,1.91
2022-12-17T13:33:49.847Z,1.81
2022-12-17T13:38:49.786Z,1.63
2022-12-17T13:43:49.718Z,1.55
2022-12-17T13:48:49.667Z,1.55
2022-12-17T13:53:49.607Z,1.56
2022-12-17T13:58:51.222Z,1.56
2022-12-17T14:04:05.966Z,1.56
2022-12-17T14:08:50.427Z,1.60
2022-12-17T14:13:49.365Z,1.64
2022-12-17T14:18:49.319Z,1.66
2022-12-17T14:23:49.237Z,1.64
2022-12-17T14:28:50.608Z,1.67
2022-12-17T14:33:49.116Z,1.59
2022-12-17T14:38:49.096Z,1.35
2022-12-17T14:43:49.006Z,0.85
2022-12-17T14:48:48.934Z,0.50
2022-12-17T14:53:48.876Z,0.20
2022-12-17T14:58:48.815Z,-0.14
2022-12-17T15:03:48.768Z,-0.55
2022-12-17T15:08:48.705Z,-0.89
2022-12-17T15:13:52.947Z,-1.23
2022-12-17T15:18:49.580Z,-1.64
2022-12-17T15:23:48.517Z,-2.03
2022-12-17T15:28:48.463Z,-2.45
2022-12-17T15:33:48.405Z,-2.85
2022-12-17T15:38:48.376Z,-3.16
2022-12-17T15:43:48.274Z,-3.31
2022-12-17T15:48:50.385Z,-3.57
2022-12-17T15:53:48.164Z,-3.81
2022-12-17T15:58:48.103Z,-4.12
2022-12-17T16:03:48.090Z,-4.34
2022-12-17T16:08:47.981Z,-4.54
2022-12-17T16:13:47.910Z,-4.81
2022-12-17T16:18:47.873Z,-4.98
2022-12-17T16:23:47.807Z,-5.11
2022-12-17T16:28:47.751Z,-5.28
2022-12-17T16:33:47.689Z,-5.41
2022-12-17T16:38:47.632Z,-5.53
2022-12-17T16:43:47.571Z,-5.54
2022-12-17T16:48:47.521Z,-5.67
2022-12-17T16:53:47.450Z,-5.77
2022-12-17T16:58:47.398Z,-5.98
2022-12-17T17:03:47.384Z,-6.29
2022-12-17T17:08:47.290Z,-6.50
2022-12-17T17:13:47.217Z,-6.50
2022-12-17T17:18:47.159Z,-6.47
2022-12-17T17:23:47.109Z,-6.59
2022-12-17T17:28:47.055Z,-6.74
2022-12-17T17:33:46.987Z,-6.93
2022-12-17T17:38:46.927Z,-6.97
2022-12-17T17:43:46.882Z,-7.07
2022-12-17T17:48:46.832Z,-7.13
2022-12-17T17:53:46.767Z,-7.42
2022-12-17T17:58:46.698Z,-7.50
2022-12-17T18:03:46.682Z,-7.63
2022-12-17T18:08:46.591Z,-7.74
2022-12-17T18:13:46.525Z,-7.88
2022-12-17T18:18:46.472Z,-8.03
2022-12-17T18:23:46.416Z,-8.04
2022-12-17T18:28:46.362Z,-8.21
2022-12-17T18:33:46.310Z,-8.26
2022-12-17T18:38:46.242Z,-8.47
2022-12-17T18:43:46.191Z,-8.74
2022-12-17T18:48:46.141Z,-8.75
2022-12-17T18:53:46.085Z,-8.76
2022-12-17T18:58:46.018Z,-8.81
2022-12-17T19:03:45.958Z,-8.86
2022-12-17T19:08:45.899Z,-8.92
2022-12-17T19:13:45.849Z,-9.07
2022-12-17T19:18:45.792Z,-9.08
2022-12-17T19:23:45.732Z,-9.22
2022-12-17T19:28:45.674Z,-9.29
2022-12-17T19:33:45.619Z,-9.43
2022-12-17T19:38:45.547Z,-9.50
2022-12-17T19:43:45.497Z,-9.64
2022-12-17T19:48:48.706Z,-9.65
2022-12-17T19:53:45.388Z,-9.72
2022-12-17T19:58:45.330Z,-9.75
2022-12-17T20:03:45.285Z,-9.66
2022-12-17T20:08:45.226Z,-9.65
2022-12-17T20:13:48.712Z,-9.64
2022-12-17T20:18:46.114Z,-9.57
2022-12-17T20:23:45.054Z,-9.36
2022-12-17T20:28:44.993Z,-9.08
2022-12-17T20:33:44.939Z,-8.92
2022-12-17T20:38:44.934Z,-8.71
2022-12-17T20:43:44.831Z,-8.53
2022-12-17T20:48:44.771Z,-8.37
2022-12-17T20:53:44.733Z,-8.11
2022-12-17T20:58:44.660Z,-7.92
2022-12-17T21:03:44.675Z,-7.67
2022-12-17T21:08:49.469Z,-7.43
2022-12-17T21:13:45.488Z,-7.29
2022-12-17T21:18:44.430Z,-7.08
2022-12-17T21:23:44.369Z,-6.85
2022-12-17T21:28:44.309Z,-6.65
2022-12-17T21:33:44.276Z,-6.43
2022-12-17T21:38:44.201Z,-6.28
2022-12-17T21:43:44.151Z,-6.14
2022-12-17T21:48:44.569Z,-5.90
2022-12-17T21:53:44.016Z,-5.83
2022-12-17T21:58:43.966Z,-5.67
2022-12-17T22:03:43.917Z,-5.67
2022-12-17T22:08:43.848Z,-5.61
2022-12-17T22:13:43.795Z,-5.56
2022-12-17T22:18:43.725Z,-5.56
2022-12-17T22:23:43.674Z,-5.63
2022-12-17T22:28:43.614Z,-5.71
2022-12-17T22:34:00.928Z,-5.77
2022-12-17T22:41:58.925Z,-5.72
2022-12-17T22:44:41.943Z,-5.83
2022-12-17T22:48:44.379Z,-5.83
2022-12-17T22:53:43.573Z,-5.99
2022-12-17T22:58:43.271Z,-6.10
2022-12-17T23:03:44.240Z,-6.18
2022-12-17T23:08:43.151Z,-6.40
2022-12-17T23:13:43.100Z,-6.68
2022-12-17T23:18:43.031Z,-6.77
2022-12-17T23:23:43.127Z,-7.03
2022-12-17T23:28:42.932Z,-7.10
2022-12-17T23:33:43.013Z,-7.15
2022-12-17T23:38:42.870Z,-7.25
2022-12-17T23:43:42.778Z,-7.21
2022-12-17T23:48:45.608Z,-7.42
2022-12-17T23:53:43.082Z,-7.37
2022-12-17T23:58:42.567Z,-7.55
